Sea-land Integrity — V7IP8 — position and weather

sailwx.info

Track history (hours):
 
Tides and Currents Weather Stations Pressure Air Temp Water Temp Dewpoint Dewpoint Depression Visibility Wind Speed Wind Dir Waves Ship Positions

Sea-land Integrity

Last reported at 2018-Jun-25 09:29 UTC. Time now 2018-Jun-25 09:43 UTC.
Position N 21°06' E 072°39'.

Type: Ship. MMSI: 538002427.

Date/timePositionNaut miles runAvg speedWind from/ knotsBaromVisibWave heightAir tempDewpointWater temp
2018-Jun-25 09:29N 21°06' E 072°39'0 0.0
2018-Jun-25 08:59N 21°06' E 072°39'0 0.0
2018-Jun-25 08:29N 21°06' E 072°39'0 0.0
2018-Jun-25 07:59N 21°06' E 072°39'0 0.0
2018-Jun-25 07:29N 21°06' E 072°39'0 0.0
2018-Jun-25 06:59N 21°06' E 072°39'0 0.0
2018-Jun-25 06:29N 21°06' E 072°39'0 0.0
2018-Jun-25 05:59N 21°06' E 072°39'0 0.0
2018-Jun-25 05:29N 21°06' E 072°39'0 0.0
2018-Jun-25 04:59N 21°06' E 072°39'0 0.0
2018-Jun-25 04:29N 21°06' E 072°39'0 0.0
2018-Jun-25 03:59N 21°06' E 072°39'0 0.0
2018-Jun-25 03:23N 21°06' E 072°39'0 0.0
2018-Jun-25 02:59N 21°06' E 072°39'0 0.0
2018-Jun-25 02:29N 21°06' E 072°39'0 0.0
2018-Jun-25 01:53N 21°06' E 072°39'0 0.0
2018-Jun-25 01:29N 21°06' E 072°39'0 0.0
2018-Jun-25 00:59N 21°06' E 072°39'0 0.0
2018-Jun-25 00:29N 21°06' E 072°39'0 0.0
2018-Jun-24 23:59N 21°06' E 072°39'0 0.0
2018-Jun-24 23:29N 21°06' E 072°39'0 0.0
2018-Jun-24 22:59N 21°06' E 072°39'0 0.0
2018-Jun-24 22:29N 21°06' E 072°39'0 0.0
2018-Jun-24 21:59N 21°06' E 072°39'0 0.0
2018-Jun-24 21:29N 21°06' E 072°39'0 0.0
2018-Jun-24 20:59N 21°06' E 072°39'0 0.0
2018-Jun-24 20:29N 21°06' E 072°39'0 0.0
2018-Jun-24 19:59N 21°06' E 072°39'0 0.0
2018-Jun-24 19:29N 21°06' E 072°39'0 0.0
2018-Jun-24 18:59N 21°06' E 072°39'0 0.0
2018-Jun-24 18:29N 21°06' E 072°39'0 0.0
2018-Jun-24 17:53N 21°06' E 072°39'0 0.0
2018-Jun-24 17:29N 21°06' E 072°39'0 0.0
2018-Jun-24 16:59N 21°06' E 072°39'0 0.0
2018-Jun-24 16:29N 21°06' E 072°39'0 0.0
2018-Jun-24 15:59N 21°06' E 072°39'0 0.0
2018-Jun-24 15:29N 21°06' E 072°39'0 0.0
2018-Jun-24 14:59N 21°06' E 072°39'0 0.0
2018-Jun-24 14:29N 21°06' E 072°39'0 0.0
2018-Jun-24 13:59N 21°06' E 072°39'0 0.0
2018-Jun-24 13:29N 21°06' E 072°39'0 0.0
2018-Jun-24 12:59N 21°06' E 072°39'1 1.6
2018-Jun-24 12:30N 21°05' E 072°40'4 7.3
2018-Jun-24 11:58N 21°01' E 072°39'4 7.7
2018-Jun-24 11:30N 20°58' E 072°37'4 8.4
2018-Jun-24 10:58N 20°54' E 072°36'3 5.9
2018-Jun-24 10:28N 20°51' E 072°35'3 5.8
2018-Jun-24 09:58N 20°48' E 072°34'5 7.9
2018-Jun-24 09:19N 20°43' E 072°32'  
Track history (hours):
 
Tides and Currents Weather Stations Pressure Air Temp Water Temp Dewpoint Dewpoint Depression Visibility Wind Speed Wind Dir Waves Ship Positions

Sea-land Integrity

Last reported at 2018-Jun-25 09:29 UTC. Time now 2018-Jun-25 09:43 UTC.
Position N 21°06' E 072°39'.

Type: Ship. MMSI: 538002427.

Date/timePositionNaut miles runAvg speedWind from/ knotsBaromVisibWave heightAir tempDewpointWater temp
2018-Jun-25 09:29N 21°06' E 072°39'0 0.0
2018-Jun-25 08:59N 21°06' E 072°39'0 0.0
2018-Jun-25 08:29N 21°06' E 072°39'0 0.0
2018-Jun-25 07:59N 21°06' E 072°39'0 0.0
2018-Jun-25 07:29N 21°06' E 072°39'0 0.0
2018-Jun-25 06:59N 21°06' E 072°39'0 0.0
2018-Jun-25 06:29N 21°06' E 072°39'0 0.0
2018-Jun-25 05:59N 21°06' E 072°39'0 0.0
2018-Jun-25 05:29N 21°06' E 072°39'0 0.0
2018-Jun-25 04:59N 21°06' E 072°39'0 0.0
2018-Jun-25 04:29N 21°06' E 072°39'0 0.0
2018-Jun-25 03:59N 21°06' E 072°39'0 0.0
2018-Jun-25 03:23N 21°06' E 072°39'0 0.0
2018-Jun-25 02:59N 21°06' E 072°39'0 0.0
2018-Jun-25 02:29N 21°06' E 072°39'0 0.0
2018-Jun-25 01:53N 21°06' E 072°39'0 0.0
2018-Jun-25 01:29N 21°06' E 072°39'0 0.0
2018-Jun-25 00:59N 21°06' E 072°39'0 0.0
2018-Jun-25 00:29N 21°06' E 072°39'0 0.0
2018-Jun-24 23:59N 21°06' E 072°39'0 0.0
2018-Jun-24 23:29N 21°06' E 072°39'0 0.0
2018-Jun-24 22:59N 21°06' E 072°39'0 0.0
2018-Jun-24 22:29N 21°06' E 072°39'0 0.0
2018-Jun-24 21:59N 21°06' E 072°39'0 0.0
2018-Jun-24 21:29N 21°06' E 072°39'0 0.0
2018-Jun-24 20:59N 21°06' E 072°39'0 0.0
2018-Jun-24 20:29N 21°06' E 072°39'0 0.0
2018-Jun-24 19:59N 21°06' E 072°39'0 0.0
2018-Jun-24 19:29N 21°06' E 072°39'0 0.0
2018-Jun-24 18:59N 21°06' E 072°39'0 0.0
2018-Jun-24 18:29N 21°06' E 072°39'0 0.0
2018-Jun-24 17:53N 21°06' E 072°39'0 0.0
2018-Jun-24 17:29N 21°06' E 072°39'0 0.0
2018-Jun-24 16:59N 21°06' E 072°39'0 0.0
2018-Jun-24 16:29N 21°06' E 072°39'0 0.0
2018-Jun-24 15:59N 21°06' E 072°39'0 0.0
2018-Jun-24 15:29N 21°06' E 072°39'0 0.0
2018-Jun-24 14:59N 21°06' E 072°39'0 0.0
2018-Jun-24 14:29N 21°06' E 072°39'0 0.0
2018-Jun-24 13:59N 21°06' E 072°39'0 0.0
2018-Jun-24 13:29N 21°06' E 072°39'0 0.0
2018-Jun-24 12:59N 21°06' E 072°39'1 1.6
2018-Jun-24 12:30N 21°05' E 072°40'4 7.3
2018-Jun-24 11:58N 21°01' E 072°39'4 7.7
2018-Jun-24 11:30N 20°58' E 072°37'4 8.4
2018-Jun-24 10:58N 20°54' E 072°36'3 5.9
2018-Jun-24 10:28N 20°51' E 072°35'3 5.8
2018-Jun-24 09:58N 20°48' E 072°34'5 7.9
2018-Jun-24 09:19N 20°43' E 072°32'  

Dump ship's entire track history